This is the latest recevied weather packets stored in our database for station/object F5TND-3. If no packets are shown the sender has not sent any weather packets the latest 10 day(s).
| Time | Temp. | Humidity | Pressure | Rain* | Wind** | Luminosity | Snow |
|---|---|---|---|---|---|---|---|
| 1787705994 | 17.22° C | 100% | 1011.3 hPa | - | - | - | - |
| 1787705905 | 17.22° C | 100% | 1011.3 hPa | - | - | - | - |
| 1787704704 | 17.78° C | 100% | 1011.3 hPa | - | - | - | - |
| 1787703503 | 17.78° C | 100% | 1011.4 hPa | - | - | - | - |
| 1787702303 | 18.33° C | 100% | 1011.4 hPa | - | - | - | - |
| 1787701104 | 18.89° C | 100% | 1011.5 hPa | - | - | - | - |
| 1787698706 | 19.44° C | 100% | 1011.5 hPa | - | - | - | - |
| 1787697506 | 19.44° C | 100% | 1011.4 hPa | - | - | - | - |
| 1787696306 | 19.44° C | 97% | 1011.3 hPa | - | - | - | - |
| 1787695106 | 19.44° C | 94% | 1011.1 hPa | - | - | - | - |
| 1787693906 | 20° C | 92% | 1010.9 hPa | - | - | - | - |
| 1787692706 | 20° C | 89% | 1011 hPa | - | - | - | - |
| 1787691506 | 20° C | 88% | 1011.1 hPa | - | - | - | - |
| 1787687906 | 21.11° C | 85% | 1010.8 hPa | - | - | - | - |
| 1787686706 | 21.11° C | 83% | 1010.7 hPa | - | - | - | - |
| 1787685506 | 21.67° C | 81% | 1010.2 hPa | - | - | - | - |
| 1787684306 | 21.67° C | 78% | 1010.2 hPa | - | - | - | - |
| 1787683106 | 22.22° C | 74% | 1010.2 hPa | - | - | - | - |
| 1787681906 | 22.78° C | 70% | 1010.1 hPa | - | - | - | - |
| 1787680710 | 22.78° C | 68% | 1009.9 hPa | - | - | - | - |
| 1787679502 | 23.89° C | 65% | 1009.8 hPa | - | - | - | - |
| 1787678329 | 26.67° C | 54% | 1009.4 hPa | - | - | - | - |
| 1787677129 | 25.56° C | 57% | 1009.4 hPa | - | - | - | - |
| 1787675928 | 26.67° C | 53% | 1009.5 hPa | - | - | - | - |
| 1787674728 | 26.67° C | 52% | 1009.4 hPa | - | - | - | - |
* Rain since midnight (hover to see other rain measurements)
** Current wind speed in m/s (hover to see current wind gust speed)